sensor_id;sensor_type;location;lat;lon;timestamp;pressure;altitude;pressure_sealevel;temperature;humidity
76070;BME280;64768;51.738;5.852;2022-12-07T07:05:32;101757.94;;;2.55;96.21
76070;BME280;64768;51.738;5.852;2022-12-07T13:24:30;101605.31;;;5.96;91.70
76070;BME280;64768;51.738;5.852;2022-12-07T13:36:43;101577.50;;;5.64;92.18
76070;BME280;64768;51.738;5.852;2022-12-07T13:39:46;101570.88;;;5.61;92.33
76070;BME280;64768;51.738;5.852;2022-12-07T13:42:37;101589.63;;;5.70;92.45
76070;BME280;64768;51.738;5.852;2022-12-07T13:45:20;101584.91;;;5.67;93.05
76070;BME280;64768;51.738;5.852;2022-12-07T13:48:30;101578.28;;;5.64;93.42
76070;BME280;64768;51.738;5.852;2022-12-07T14:07:55;101570.97;;;5.49;94.01
76070;BME280;64768;51.738;5.852;2022-12-07T14:11:14;101559.13;;;5.38;93.94
76070;BME280;64768;51.738;5.852;2022-12-07T14:14:25;101545.88;;;5.33;93.98
76070;BME280;64768;51.738;5.852;2022-12-07T14:20:49;101553.97;;;5.33;94.55
76070;BME280;64768;51.738;5.852;2022-12-07T14:34:03;101531.19;;;5.02;94.79
76070;BME280;64768;51.738;5.852;2022-12-07T14:36:39;101521.00;;;4.96;94.87
76070;BME280;64768;51.738;5.852;2022-12-07T14:39:09;101524.22;;;5.01;94.94
76070;BME280;64768;51.738;5.852;2022-12-07T14:41:39;101523.72;;;4.96;94.68
76070;BME280;64768;51.738;5.852;2022-12-07T14:44:35;101536.38;;;5.07;94.99
76070;BME280;64768;51.738;5.852;2022-12-07T14:47:05;101500.91;;;4.93;94.76
76070;BME280;64768;51.738;5.852;2022-12-07T14:49:41;101525.56;;;5.07;94.80
76070;BME280;64768;51.738;5.852;2022-12-07T14:52:16;101510.56;;;4.94;94.74
76070;BME280;64768;51.738;5.852;2022-12-07T14:54:53;101537.94;;;5.08;95.19
76070;BME280;64768;51.738;5.852;2022-12-07T14:57:23;101522.84;;;4.92;95.05
76070;BME280;64768;51.738;5.852;2022-12-07T15:00:13;101536.59;;;5.02;95.25
76070;BME280;64768;51.738;5.852;2022-12-07T15:02:53;101535.47;;;5.03;95.04
76070;BME280;64768;51.738;5.852;2022-12-07T15:05:46;101513.84;;;4.88;94.68
76070;BME280;64768;51.738;5.852;2022-12-07T15:08:16;101517.53;;;4.95;95.10
76070;BME280;64768;51.738;5.852;2022-12-07T15:10:49;101531.91;;;4.99;95.06
76070;BME280;64768;51.738;5.852;2022-12-07T15:13:25;101502.97;;;4.84;94.89
76070;BME280;64768;51.738;5.852;2022-12-07T15:19:01;101503.66;;;4.81;94.90
76070;BME280;64768;51.738;5.852;2022-12-07T15:21:46;101528.25;;;4.92;94.84
76070;BME280;64768;51.738;5.852;2022-12-07T15:24:24;101521.00;;;4.80;94.99
76070;BME280;64768;51.738;5.852;2022-12-07T15:27:08;101517.06;;;4.77;95.17
76070;BME280;64768;51.738;5.852;2022-12-07T15:29:49;101518.97;;;4.77;95.11
76070;BME280;64768;51.738;5.852;2022-12-07T15:32:44;101533.16;;;4.74;95.19
76070;BME280;64768;51.738;5.852;2022-12-07T15:35:17;101515.28;;;4.69;95.48
76070;BME280;64768;51.738;5.852;2022-12-07T15:38:20;101521.59;;;4.73;95.40
76070;BME280;64768;51.738;5.852;2022-12-07T15:41:05;101513.19;;;4.63;95.31
76070;BME280;64768;51.738;5.852;2022-12-07T15:43:36;101497.16;;;4.54;95.08
76070;BME280;64768;51.738;5.852;2022-12-07T15:46:22;101492.00;;;4.49;95.32
76070;BME280;64768;51.738;5.852;2022-12-07T15:48:59;101504.47;;;4.53;95.21
76070;BME280;64768;51.738;5.852;2022-12-07T15:51:43;101491.91;;;4.45;95.12
76070;BME280;64768;51.738;5.852;2022-12-07T15:54:33;101512.13;;;4.51;95.26
76070;BME280;64768;51.738;5.852;2022-12-07T15:57:07;101490.13;;;4.37;95.26
76070;BME280;64768;51.738;5.852;2022-12-07T15:59:52;101488.47;;;4.33;95.23
76070;BME280;64768;51.738;5.852;2022-12-07T16:02:39;101496.31;;;4.38;95.44
76070;BME280;64768;51.738;5.852;2022-12-07T16:05:32;101499.47;;;4.40;95.84
76070;BME280;64768;51.738;5.852;2022-12-07T16:08:43;101475.47;;;4.22;95.56
76070;BME280;64768;51.738;5.852;2022-12-07T16:11:41;101497.78;;;4.35;95.68
76070;BME280;64768;51.738;5.852;2022-12-07T16:14:27;101497.34;;;4.33;95.44
76070;BME280;64768;51.738;5.852;2022-12-07T16:17:07;101474.94;;;4.17;95.43
76070;BME280;64768;51.738;5.852;2022-12-07T16:19:41;101487.94;;;4.27;95.40
76070;BME280;64768;51.738;5.852;2022-12-07T16:26:03;101490.44;;;4.20;95.66
76070;BME280;64768;51.738;5.852;2022-12-07T16:29:01;101465.09;;;4.09;95.52
76070;BME280;64768;51.738;5.852;2022-12-07T16:31:43;101461.06;;;4.03;95.75
76070;BME280;64768;51.738;5.852;2022-12-07T16:37:49;101468.91;;;4.08;95.81
76070;BME280;64768;51.738;5.852;2022-12-07T16:40:34;101473.41;;;4.04;95.83
76070;BME280;64768;51.738;5.852;2022-12-07T16:43:33;101477.56;;;4.01;95.83
76070;BME280;64768;51.738;5.852;2022-12-07T16:52:54;101462.88;;;3.86;95.67
76070;BME280;64768;51.738;5.852;2022-12-07T16:55:41;101486.69;;;3.97;95.93
76070;BME280;64768;51.738;5.852;2022-12-07T16:58:18;101478.25;;;3.98;96.07
76070;BME280;64768;51.738;5.852;2022-12-07T17:01:25;101463.91;;;3.94;95.85
76070;BME280;64768;51.738;5.852;2022-12-07T17:04:20;101466.59;;;3.94;95.79
76070;BME280;64768;51.738;5.852;2022-12-07T17:07:02;101446.72;;;3.86;95.97
76070;BME280;64768;51.738;5.852;2022-12-07T17:09:55;101466.00;;;4.01;95.53
76070;BME280;64768;51.738;5.852;2022-12-07T17:13:05;101462.44;;;3.97;95.59
76070;BME280;64768;51.738;5.852;2022-12-07T17:19:14;101432.38;;;3.82;95.48
76070;BME280;64768;51.738;5.852;2022-12-07T17:22:22;101433.59;;;3.85;95.85
76070;BME280;64768;51.738;5.852;2022-12-07T17:38:12;101434.81;;;3.87;95.63
76070;BME280;64768;51.738;5.852;2022-12-07T17:41:10;101416.53;;;3.81;96.18
76070;BME280;64768;51.738;5.852;2022-12-07T17:43:59;101410.38;;;3.80;96.07
76070;BME280;64768;51.738;5.852;2022-12-07T17:46:49;101401.97;;;3.70;96.04
76070;BME280;64768;51.738;5.852;2022-12-07T17:49:38;101424.03;;;3.87;96.21
76070;BME280;64768;51.738;5.852;2022-12-07T17:52:16;101411.59;;;3.83;95.95
76070;BME280;64768;51.738;5.852;2022-12-07T17:55:35;101406.91;;;3.80;95.75
76070;BME280;64768;51.738;5.852;2022-12-07T17:59:01;101421.34;;;3.87;95.64
76070;BME280;64768;51.738;5.852;2022-12-07T18:04:41;101409.25;;;3.81;95.94
76070;BME280;64768;51.738;5.852;2022-12-07T18:07:28;101417.53;;;3.88;95.68
76070;BME280;64768;51.738;5.852;2022-12-07T18:10:30;101413.25;;;3.87;95.65
76070;BME280;64768;51.738;5.852;2022-12-07T18:13:35;101396.47;;;3.78;95.79
76070;BME280;64768;51.738;5.852;2022-12-07T18:22:31;101394.41;;;3.87;95.50
76070;BME280;64768;51.738;5.852;2022-12-07T18:32:03;101394.31;;;3.84;95.88
76070;BME280;64768;51.738;5.852;2022-12-07T18:39:39;101388.56;;;3.85;96.10
76070;BME280;64768;51.738;5.852;2022-12-07T18:44:54;101360.78;;;3.69;95.96
76070;BME280;64768;51.738;5.852;2022-12-07T18:54:25;101377.25;;;3.80;95.83
76070;BME280;64768;51.738;5.852;2022-12-07T18:57:52;101358.53;;;3.71;95.72
76070;BME280;64768;51.738;5.852;2022-12-07T19:00:57;101383.53;;;3.84;95.52
76070;BME280;64768;51.738;5.852;2022-12-07T21:46:56;101270.28;;;3.80;95.99
76070;BME280;64768;51.738;5.852;2022-12-07T21:50:09;101240.25;;;3.66;95.61
76070;BME280;64768;51.738;5.852;2022-12-07T21:53:15;101271.41;;;3.79;95.75
